sensor_id;sensor_type;location;lat;lon;timestamp;temperature;humidity
56322;DHT22;42227;6.376;-10.782;2022-10-17T00:01:06;24.80;99.90
56322;DHT22;42227;6.376;-10.782;2022-10-17T00:03:36;24.70;99.90
56322;DHT22;42227;6.376;-10.782;2022-10-17T00:06:09;24.70;99.90
56322;DHT22;42227;6.376;-10.782;2022-10-17T00:08:39;24.70;99.90
56322;DHT22;42227;6.376;-10.782;2022-10-17T00:11:19;24.70;99.90
56322;DHT22;42227;6.376;-10.782;2022-10-17T00:13:49;24.60;99.90
56322;DHT22;42227;6.376;-10.782;2022-10-17T00:16:26;24.60;99.90
56322;DHT22;42227;6.376;-10.782;2022-10-17T00:18:55;24.70;99.90
56322;DHT22;42227;6.376;-10.782;2022-10-17T00:21:24;24.80;99.90
56322;DHT22;42227;6.376;-10.782;2022-10-17T00:23:53;25.00;99.90
56322;DHT22;42227;6.376;-10.782;2022-10-17T00:26:22;25.00;99.90
56322;DHT22;42227;6.376;-10.782;2022-10-17T00:28:51;25.00;99.90
56322;DHT22;42227;6.376;-10.782;2022-10-17T00:31:21;24.80;99.90
56322;DHT22;42227;6.376;-10.782;2022-10-17T00:33:50;24.70;99.90
56322;DHT22;42227;6.376;-10.782;2022-10-17T00:36:21;24.60;99.90
56322;DHT22;42227;6.376;-10.782;2022-10-17T00:38:52;24.50;99.90
56322;DHT22;42227;6.376;-10.782;2022-10-17T00:41:23;24.50;99.90
56322;DHT22;42227;6.376;-10.782;2022-10-17T00:46:32;24.50;99.90
56322;DHT22;42227;6.376;-10.782;2022-10-17T00:49:07;24.50;99.90
56322;DHT22;42227;6.376;-10.782;2022-10-17T00:51:42;24.40;99.90
56322;DHT22;42227;6.376;-10.782;2022-10-17T00:54:13;24.50;99.90
56322;DHT22;42227;6.376;-10.782;2022-10-17T00:56:44;24.60;99.90
56322;DHT22;42227;6.376;-10.782;2022-10-17T00:59:15;24.60;99.90
56322;DHT22;42227;6.376;-10.782;2022-10-17T01:02:02;24.70;99.90
56322;DHT22;42227;6.376;-10.782;2022-10-17T01:04:31;24.80;99.90
56322;DHT22;42227;6.376;-10.782;2022-10-17T01:06:59;24.70;99.90
56322;DHT22;42227;6.376;-10.782;2022-10-17T01:09:28;24.60;99.90
56322;DHT22;42227;6.376;-10.782;2022-10-17T01:20:28;24.40;99.90
56322;DHT22;42227;6.376;-10.782;2022-10-17T01:32:15;24.60;99.90
56322;DHT22;42227;6.376;-10.782;2022-10-17T01:34:54;24.70;99.90
56322;DHT22;42227;6.376;-10.782;2022-10-17T01:37:43;24.60;99.90
56322;DHT22;42227;6.376;-10.782;2022-10-17T01:40:23;24.50;99.90
56322;DHT22;42227;6.376;-10.782;2022-10-17T01:43:32;24.40;99.90
56322;DHT22;42227;6.376;-10.782;2022-10-17T01:46:21;24.30;99.90
56322;DHT22;42227;6.376;-10.782;2022-10-17T01:48:51;24.30;99.90
56322;DHT22;42227;6.376;-10.782;2022-10-17T01:51:32;24.30;99.90
56322;DHT22;42227;6.376;-10.782;2022-10-17T01:54:52;24.40;99.90
56322;DHT22;42227;6.376;-10.782;2022-10-17T01:57:04;24.40;99.90
56322;DHT22;42227;6.376;-10.782;2022-10-17T01:59:43;24.30;99.90
56322;DHT22;42227;6.376;-10.782;2022-10-17T02:02:14;24.30;99.90
56322;DHT22;42227;6.376;-10.782;2022-10-17T02:04:43;24.40;99.90
56322;DHT22;42227;6.376;-10.782;2022-10-17T02:07:14;24.40;99.90
56322;DHT22;42227;6.376;-10.782;2022-10-17T02:09:43;24.40;99.90
56322;DHT22;42227;6.376;-10.782;2022-10-17T02:12:31;24.50;99.90
56322;DHT22;42227;6.376;-10.782;2022-10-17T02:15:27;24.40;99.90
56322;DHT22;42227;6.376;-10.782;2022-10-17T02:20:41;24.30;99.90
56322;DHT22;42227;6.376;-10.782;2022-10-17T02:23:12;24.30;99.90
56322;DHT22;42227;6.376;-10.782;2022-10-17T02:25:54;24.40;99.90
56322;DHT22;42227;6.376;-10.782;2022-10-17T02:28:39;24.40;99.90
56322;DHT22;42227;6.376;-10.782;2022-10-17T02:31:13;24.40;99.90
56322;DHT22;42227;6.376;-10.782;2022-10-17T02:36:23;24.30;99.90
56322;DHT22;42227;6.376;-10.782;2022-10-17T02:38:54;24.30;99.90
56322;DHT22;42227;6.376;-10.782;2022-10-17T02:41:23;24.30;99.90
56322;DHT22;42227;6.376;-10.782;2022-10-17T02:43:52;24.30;99.90
56322;DHT22;42227;6.376;-10.782;2022-10-17T02:46:27;24.40;99.90
56322;DHT22;42227;6.376;-10.782;2022-10-17T02:49:17;24.50;99.90
56322;DHT22;42227;6.376;-10.782;2022-10-17T02:54:55;24.30;99.90
56322;DHT22;42227;6.376;-10.782;2022-10-17T02:57:55;24.20;99.90
56322;DHT22;42227;6.376;-10.782;2022-10-17T03:00:26;24.10;99.90
56322;DHT22;42227;6.376;-10.782;2022-10-17T03:02:55;24.10;99.90
56322;DHT22;42227;6.376;-10.782;2022-10-17T03:05:27;24.20;99.90
56322;DHT22;42227;6.376;-10.782;2022-10-17T03:07:56;24.10;99.90
56322;DHT22;42227;6.376;-10.782;2022-10-17T03:10:24;24.10;99.90
56322;DHT22;42227;6.376;-10.782;2022-10-17T03:12:52;24.10;99.90
56322;DHT22;42227;6.376;-10.782;2022-10-17T03:15:20;24.10;99.90
56322;DHT22;42227;6.376;-10.782;2022-10-17T03:17:49;24.10;99.90
56322;DHT22;42227;6.376;-10.782;2022-10-17T03:20:18;24.20;99.90
56322;DHT22;42227;6.376;-10.782;2022-10-17T03:22:46;24.30;99.90
56322;DHT22;42227;6.376;-10.782;2022-10-17T03:25:14;24.30;99.90
56322;DHT22;42227;6.376;-10.782;2022-10-17T03:27:43;24.20;99.90
56322;DHT22;42227;6.376;-10.782;2022-10-17T03:30:11;24.20;99.90
56322;DHT22;42227;6.376;-10.782;2022-10-17T03:32:39;24.10;99.90
56322;DHT22;42227;6.376;-10.782;2022-10-17T03:35:08;24.10;99.90
56322;DHT22;42227;6.376;-10.782;2022-10-17T03:37:45;24.00;99.90
56322;DHT22;42227;6.376;-10.782;2022-10-17T03:40:15;24.00;99.90
56322;DHT22;42227;6.376;-10.782;2022-10-17T03:42:43;24.00;99.90
56322;DHT22;42227;6.376;-10.782;2022-10-17T03:45:11;24.00;99.90
56322;DHT22;42227;6.376;-10.782;2022-10-17T03:47:41;24.10;99.90
56322;DHT22;42227;6.376;-10.782;2022-10-17T03:50:09;24.20;99.90
56322;DHT22;42227;6.376;-10.782;2022-10-17T03:52:39;24.20;99.90
56322;DHT22;42227;6.376;-10.782;2022-10-17T03:55:08;24.20;99.90
56322;DHT22;42227;6.376;-10.782;2022-10-17T03:57:36;24.10;99.90
56322;DHT22;42227;6.376;-10.782;2022-10-17T04:00:09;24.00;99.90
56322;DHT22;42227;6.376;-10.782;2022-10-17T04:02:40;24.00;99.90
56322;DHT22;42227;6.376;-10.782;2022-10-17T04:05:15;23.90;99.90
56322;DHT22;42227;6.376;-10.782;2022-10-17T04:07:43;23.90;99.90
56322;DHT22;42227;6.376;-10.782;2022-10-17T04:10:13;23.90;99.90
56322;DHT22;42227;6.376;-10.782;2022-10-17T04:12:42;23.90;99.90
56322;DHT22;42227;6.376;-10.782;2022-10-17T04:15:11;23.90;99.90
56322;DHT22;42227;6.376;-10.782;2022-10-17T04:17:39;23.90;99.90
56322;DHT22;42227;6.376;-10.782;2022-10-17T04:20:08;23.90;99.90
56322;DHT22;42227;6.376;-10.782;2022-10-17T04:22:37;24.00;99.90
56322;DHT22;42227;6.376;-10.782;2022-10-17T04:25:05;24.00;99.90
56322;DHT22;42227;6.376;-10.782;2022-10-17T04:27:40;24.00;99.90
56322;DHT22;42227;6.376;-10.782;2022-10-17T04:30:08;24.10;99.90
56322;DHT22;42227;6.376;-10.782;2022-10-17T04:32:38;24.00;99.90
56322;DHT22;42227;6.376;-10.782;2022-10-17T04:35:17;23.90;99.90
56322;DHT22;42227;6.376;-10.782;2022-10-17T04:37:50;23.90;99.90
56322;DHT22;42227;6.376;-10.782;2022-10-17T04:40:19;23.80;99.90
56322;DHT22;42227;6.376;-10.782;2022-10-17T04:42:50;23.80;99.90
56322;DHT22;42227;6.376;-10.782;2022-10-17T04:45:20;23.70;99.90
56322;DHT22;42227;6.376;-10.782;2022-10-17T04:47:54;23.80;99.90
56322;DHT22;42227;6.376;-10.782;2022-10-17T04:50:22;23.80;99.90
56322;DHT22;42227;6.376;-10.782;2022-10-17T04:53:10;23.80;99.90
56322;DHT22;42227;6.376;-10.782;2022-10-17T04:55:38;23.80;99.90
56322;DHT22;42227;6.376;-10.782;2022-10-17T04:58:07;23.80;99.90
56322;DHT22;42227;6.376;-10.782;2022-10-17T05:00:36;24.00;99.90
56322;DHT22;42227;6.376;-10.782;2022-10-17T05:03:13;24.00;99.90
56322;DHT22;42227;6.376;-10.782;2022-10-17T05:05:42;23.90;99.90
56322;DHT22;42227;6.376;-10.782;2022-10-17T05:08:11;23.80;99.90
56322;DHT22;42227;6.376;-10.782;2022-10-17T05:10:41;23.70;99.90
56322;DHT22;42227;6.376;-10.782;2022-10-17T05:13:10;23.80;99.90
56322;DHT22;42227;6.376;-10.782;2022-10-17T05:15:40;23.70;99.90
56322;DHT22;42227;6.376;-10.782;2022-10-17T05:18:08;23.70;99.90
56322;DHT22;42227;6.376;-10.782;2022-10-17T05:20:37;23.70;99.90
56322;DHT22;42227;6.376;-10.782;2022-10-17T05:23:06;23.70;99.90
56322;DHT22;42227;6.376;-10.782;2022-10-17T05:25:39;23.70;99.90
56322;DHT22;42227;6.376;-10.782;2022-10-17T05:28:07;23.70;99.90
56322;DHT22;42227;6.376;-10.782;2022-10-17T05:30:36;23.80;99.90
56322;DHT22;42227;6.376;-10.782;2022-10-17T05:33:07;23.90;99.90
56322;DHT22;42227;6.376;-10.782;2022-10-17T05:35:35;24.00;99.90
56322;DHT22;42227;6.376;-10.782;2022-10-17T05:38:04;23.90;99.90
56322;DHT22;42227;6.376;-10.782;2022-10-17T05:40:34;23.90;99.90
56322;DHT22;42227;6.376;-10.782;2022-10-17T05:43:03;23.80;99.90
56322;DHT22;42227;6.376;-10.782;2022-10-17T05:45:31;23.70;99.90
56322;DHT22;42227;6.376;-10.782;2022-10-17T05:48:00;23.70;99.90
56322;DHT22;42227;6.376;-10.782;2022-10-17T05:50:29;23.70;99.90
56322;DHT22;42227;6.376;-10.782;2022-10-17T05:53:09;23.70;99.90
56322;DHT22;42227;6.376;-10.782;2022-10-17T05:55:43;23.70;99.90
56322;DHT22;42227;6.376;-10.782;2022-10-17T05:58:12;23.60;99.90
56322;DHT22;42227;6.376;-10.782;2022-10-17T06:01:06;23.70;99.90
56322;DHT22;42227;6.376;-10.782;2022-10-17T06:03:39;23.90;99.90
56322;DHT22;42227;6.376;-10.782;2022-10-17T06:06:11;24.00;99.90
56322;DHT22;42227;6.376;-10.782;2022-10-17T06:08:43;24.00;99.90
56322;DHT22;42227;6.376;-10.782;2022-10-17T06:11:15;23.80;99.90
56322;DHT22;42227;6.376;-10.782;2022-10-17T06:13:43;23.70;99.90
56322;DHT22;42227;6.376;-10.782;2022-10-17T06:16:20;23.70;99.90
56322;DHT22;42227;6.376;-10.782;2022-10-17T06:18:49;23.50;99.90
56322;DHT22;42227;6.376;-10.782;2022-10-17T06:21:22;23.60;99.90
56322;DHT22;42227;6.376;-10.782;2022-10-17T06:23:53;23.60;99.90
56322;DHT22;42227;6.376;-10.782;2022-10-17T06:26:29;23.60;99.90
56322;DHT22;42227;6.376;-10.782;2022-10-17T06:28:58;23.50;99.90
56322;DHT22;42227;6.376;-10.782;2022-10-17T06:31:31;23.50;99.90
56322;DHT22;42227;6.376;-10.782;2022-10-17T06:33:59;23.50;99.90
56322;DHT22;42227;6.376;-10.782;2022-10-17T06:36:28;23.60;99.90
56322;DHT22;42227;6.376;-10.782;2022-10-17T06:38:56;23.90;99.90
56322;DHT22;42227;6.376;-10.782;2022-10-17T06:41:33;24.00;99.90
56322;DHT22;42227;6.376;-10.782;2022-10-17T06:44:07;24.10;99.90
56322;DHT22;42227;6.376;-10.782;2022-10-17T06:46:48;23.90;99.90
56322;DHT22;42227;6.376;-10.782;2022-10-17T06:49:17;23.80;99.90
56322;DHT22;42227;6.376;-10.782;2022-10-17T06:51:58;23.80;99.90
56322;DHT22;42227;6.376;-10.782;2022-10-17T06:54:45;23.90;99.90
56322;DHT22;42227;6.376;-10.782;2022-10-17T06:57:39;23.90;99.90
56322;DHT22;42227;6.376;-10.782;2022-10-17T07:00:39;23.90;99.90
56322;DHT22;42227;6.376;-10.782;2022-10-17T07:03:10;24.00;99.90
56322;DHT22;42227;6.376;-10.782;2022-10-17T07:05:38;24.10;99.90
56322;DHT22;42227;6.376;-10.782;2022-10-17T07:08:07;24.20;99.90
56322;DHT22;42227;6.376;-10.782;2022-10-17T07:10:37;24.30;99.90
56322;DHT22;42227;6.376;-10.782;2022-10-17T07:13:08;24.50;99.90
56322;DHT22;42227;6.376;-10.782;2022-10-17T07:15:37;24.70;99.90
56322;DHT22;42227;6.376;-10.782;2022-10-17T07:18:05;24.90;99.90
56322;DHT22;42227;6.376;-10.782;2022-10-17T07:20:34;25.00;99.90
56322;DHT22;42227;6.376;-10.782;2022-10-17T07:23:02;25.00;99.90
56322;DHT22;42227;6.376;-10.782;2022-10-17T07:25:31;25.00;99.90
56322;DHT22;42227;6.376;-10.782;2022-10-17T07:28:06;25.00;99.90
56322;DHT22;42227;6.376;-10.782;2022-10-17T07:30:35;25.00;99.90
56322;DHT22;42227;6.376;-10.782;2022-10-17T07:33:08;25.00;99.90
56322;DHT22;42227;6.376;-10.782;2022-10-17T07:35:37;25.00;99.90
56322;DHT22;42227;6.376;-10.782;2022-10-17T07:38:06;25.10;99.90
56322;DHT22;42227;6.376;-10.782;2022-10-17T07:40:34;25.20;99.90
56322;DHT22;42227;6.376;-10.782;2022-10-17T07:43:03;25.10;99.90
56322;DHT22;42227;6.376;-10.782;2022-10-17T07:45:31;25.10;99.90
56322;DHT22;42227;6.376;-10.782;2022-10-17T07:47:59;25.20;99.90
56322;DHT22;42227;6.376;-10.782;2022-10-17T07:50:29;25.50;99.90
56322;DHT22;42227;6.376;-10.782;2022-10-17T07:52:57;25.70;99.90
56322;DHT22;42227;6.376;-10.782;2022-10-17T07:55:26;25.90;99.90
56322;DHT22;42227;6.376;-10.782;2022-10-17T07:57:55;26.00;99.90
56322;DHT22;42227;6.376;-10.782;2022-10-17T08:00:23;26.10;99.90
56322;DHT22;42227;6.376;-10.782;2022-10-17T08:02:52;26.20;99.90
56322;DHT22;42227;6.376;-10.782;2022-10-17T08:05:20;26.30;99.90
56322;DHT22;42227;6.376;-10.782;2022-10-17T08:07:48;26.50;99.90
56322;DHT22;42227;6.376;-10.782;2022-10-17T08:10:17;26.40;99.90
56322;DHT22;42227;6.376;-10.782;2022-10-17T08:12:45;26.40;99.90
56322;DHT22;42227;6.376;-10.782;2022-10-17T08:15:13;26.30;99.90
56322;DHT22;42227;6.376;-10.782;2022-10-17T08:17:41;26.30;99.90
56322;DHT22;42227;6.376;-10.782;2022-10-17T08:20:10;26.30;99.90
56322;DHT22;42227;6.376;-10.782;2022-10-17T08:22:38;26.20;99.90
56322;DHT22;42227;6.376;-10.782;2022-10-17T08:25:07;26.40;99.90
56322;DHT22;42227;6.376;-10.782;2022-10-17T08:27:35;26.40;99.90
56322;DHT22;42227;6.376;-10.782;2022-10-17T08:30:04;26.20;99.90
56322;DHT22;42227;6.376;-10.782;2022-10-17T08:32:32;26.00;99.90
56322;DHT22;42227;6.376;-10.782;2022-10-17T08:35:00;26.00;99.90
56322;DHT22;42227;6.376;-10.782;2022-10-17T08:37:29;26.10;99.90
56322;DHT22;42227;6.376;-10.782;2022-10-17T08:39:58;26.10;99.90
56322;DHT22;42227;6.376;-10.782;2022-10-17T08:47:53;26.10;99.90
56322;DHT22;42227;6.376;-10.782;2022-10-17T08:50:36;26.20;99.90
56322;DHT22;42227;6.376;-10.782;2022-10-17T08:53:11;26.50;99.90
56322;DHT22;42227;6.376;-10.782;2022-10-17T08:55:45;26.70;99.90
56322;DHT22;42227;6.376;-10.782;2022-10-17T08:58:20;26.60;99.90
56322;DHT22;42227;6.376;-10.782;2022-10-17T09:06:34;27.50;99.90
56322;DHT22;42227;6.376;-10.782;2022-10-17T09:11:47;27.70;99.90
56322;DHT22;42227;6.376;-10.782;2022-10-17T09:17:27;28.20;99.90
56322;DHT22;42227;6.376;-10.782;2022-10-17T09:25:17;29.90;99.90
56322;DHT22;42227;6.376;-10.782;2022-10-17T09:28:10;30.00;99.90
56322;DHT22;42227;6.376;-10.782;2022-10-17T09:31:04;30.20;99.90
56322;DHT22;42227;6.376;-10.782;2022-10-17T09:33:41;30.70;99.90
56322;DHT22;42227;6.376;-10.782;2022-10-17T09:36:31;30.60;99.90
56322;DHT22;42227;6.376;-10.782;2022-10-17T09:39:11;30.70;99.90
56322;DHT22;42227;6.376;-10.782;2022-10-17T09:41:54;31.10;99.90
56322;DHT22;42227;6.376;-10.782;2022-10-17T09:49:52;31.30;99.90
56322;DHT22;42227;6.376;-10.782;2022-10-17T09:52:26;31.00;99.90
56322;DHT22;42227;6.376;-10.782;2022-10-17T09:55:04;31.00;99.90
56322;DHT22;42227;6.376;-10.782;2022-10-17T09:57:54;30.80;99.90
56322;DHT22;42227;6.376;-10.782;2022-10-17T10:00:39;30.50;99.90
56322;DHT22;42227;6.376;-10.782;2022-10-17T10:03:18;30.30;99.90
56322;DHT22;42227;6.376;-10.782;2022-10-17T10:08:35;30.00;99.90
56322;DHT22;42227;6.376;-10.782;2022-10-17T10:11:07;29.70;99.90
56322;DHT22;42227;6.376;-10.782;2022-10-17T10:13:42;29.60;99.90
56322;DHT22;42227;6.376;-10.782;2022-10-17T10:18:48;30.00;99.90
56322;DHT22;42227;6.376;-10.782;2022-10-17T10:21:25;30.50;99.90
56322;DHT22;42227;6.376;-10.782;2022-10-17T10:24:04;30.80;99.90
56322;DHT22;42227;6.376;-10.782;2022-10-17T10:26:45;30.80;99.90
56322;DHT22;42227;6.376;-10.782;2022-10-17T10:29:26;31.00;99.90
56322;DHT22;42227;6.376;-10.782;2022-10-17T10:31:55;30.80;99.90
56322;DHT22;42227;6.376;-10.782;2022-10-17T10:34:28;29.70;99.90
56322;DHT22;42227;6.376;-10.782;2022-10-17T10:37:01;29.50;99.90
56322;DHT22;42227;6.376;-10.782;2022-10-17T10:39:37;29.80;99.90
56322;DHT22;42227;6.376;-10.782;2022-10-17T10:42:18;30.30;99.90
56322;DHT22;42227;6.376;-10.782;2022-10-17T10:44:49;30.50;99.90
56322;DHT22;42227;6.376;-10.782;2022-10-17T10:47:28;31.00;99.90
56322;DHT22;42227;6.376;-10.782;2022-10-17T11:01:42;31.10;99.90
56322;DHT22;42227;6.376;-10.782;2022-10-17T11:04:35;31.70;99.90
56322;DHT22;42227;6.376;-10.782;2022-10-17T11:07:35;31.90;99.90
56322;DHT22;42227;6.376;-10.782;2022-10-17T11:15:43;31.60;99.90
56322;DHT22;42227;6.376;-10.782;2022-10-17T11:20:58;31.70;99.90
56322;DHT22;42227;6.376;-10.782;2022-10-17T11:28:36;31.50;99.90
56322;DHT22;42227;6.376;-10.782;2022-10-17T11:31:13;31.20;99.90
56322;DHT22;42227;6.376;-10.782;2022-10-17T11:34:13;30.70;99.90
56322;DHT22;42227;6.376;-10.782;2022-10-17T11:36:43;30.40;99.90
56322;DHT22;42227;6.376;-10.782;2022-10-17T11:39:21;30.00;99.90
56322;DHT22;42227;6.376;-10.782;2022-10-17T11:42:03;29.90;99.90
56322;DHT22;42227;6.376;-10.782;2022-10-17T11:44:36;30.00;99.90
56322;DHT22;42227;6.376;-10.782;2022-10-17T11:53:18;30.00;99.90
56322;DHT22;42227;6.376;-10.782;2022-10-17T11:55:47;30.20;99.90
56322;DHT22;42227;6.376;-10.782;2022-10-17T11:58:27;30.80;99.90
56322;DHT22;42227;6.376;-10.782;2022-10-17T12:12:43;31.40;99.90
56322;DHT22;42227;6.376;-10.782;2022-10-17T12:17:45;30.90;99.90
56322;DHT22;42227;6.376;-10.782;2022-10-17T12:23:04;30.50;99.90
56322;DHT22;42227;6.376;-10.782;2022-10-17T12:25:36;29.90;99.90
56322;DHT22;42227;6.376;-10.782;2022-10-17T12:28:30;30.30;99.90
56322;DHT22;42227;6.376;-10.782;2022-10-17T12:33:50;30.70;99.90
56322;DHT22;42227;6.376;-10.782;2022-10-17T12:41:52;31.90;99.90
56322;DHT22;42227;6.376;-10.782;2022-10-17T12:49:44;30.40;99.90
56322;DHT22;42227;6.376;-10.782;2022-10-17T12:52:20;30.10;99.90
56322;DHT22;42227;6.376;-10.782;2022-10-17T12:57:56;30.00;99.90
56322;DHT22;42227;6.376;-10.782;2022-10-17T13:00:34;29.90;99.90
56322;DHT22;42227;6.376;-10.782;2022-10-17T13:03:10;29.70;99.90
56322;DHT22;42227;6.376;-10.782;2022-10-17T13:05:44;30.10;99.90
56322;DHT22;42227;6.376;-10.782;2022-10-17T13:08:24;29.80;99.90
56322;DHT22;42227;6.376;-10.782;2022-10-17T13:10:55;29.40;99.90
56322;DHT22;42227;6.376;-10.782;2022-10-17T13:13:49;29.10;99.90
56322;DHT22;42227;6.376;-10.782;2022-10-17T13:16:36;28.90;99.90
56322;DHT22;42227;6.376;-10.782;2022-10-17T13:19:14;29.00;99.90
56322;DHT22;42227;6.376;-10.782;2022-10-17T13:21:56;29.10;99.90
56322;DHT22;42227;6.376;-10.782;2022-10-17T13:24:37;29.20;99.90
56322;DHT22;42227;6.376;-10.782;2022-10-17T13:29:57;29.70;99.90
56322;DHT22;42227;6.376;-10.782;2022-10-17T13:32:34;29.90;99.90
56322;DHT22;42227;6.376;-10.782;2022-10-17T13:35:15;30.30;99.90
56322;DHT22;42227;6.376;-10.782;2022-10-17T13:37:45;30.60;99.90
56322;DHT22;42227;6.376;-10.782;2022-10-17T13:40:29;30.40;99.90
56322;DHT22;42227;6.376;-10.782;2022-10-17T13:43:18;30.50;99.90
56322;DHT22;42227;6.376;-10.782;2022-10-17T13:45:50;30.80;99.90
56322;DHT22;42227;6.376;-10.782;2022-10-17T13:48:25;30.60;99.90
56322;DHT22;42227;6.376;-10.782;2022-10-17T13:50:56;30.50;99.90
56322;DHT22;42227;6.376;-10.782;2022-10-17T13:56:05;30.40;99.90
56322;DHT22;42227;6.376;-10.782;2022-10-17T13:58:57;30.40;99.90
56322;DHT22;42227;6.376;-10.782;2022-10-17T14:01:27;30.00;99.90
56322;DHT22;42227;6.376;-10.782;2022-10-17T14:03:57;30.00;99.90
56322;DHT22;42227;6.376;-10.782;2022-10-17T14:06:46;29.90;99.90
56322;DHT22;42227;6.376;-10.782;2022-10-17T14:11:58;29.10;99.90
56322;DHT22;42227;6.376;-10.782;2022-10-17T14:14:28;28.80;99.90
56322;DHT22;42227;6.376;-10.782;2022-10-17T14:19:53;28.70;99.90
56322;DHT22;42227;6.376;-10.782;2022-10-17T14:22:43;28.70;99.90
56322;DHT22;42227;6.376;-10.782;2022-10-17T14:25:31;28.80;99.90
56322;DHT22;42227;6.376;-10.782;2022-10-17T14:30:41;28.90;99.90
56322;DHT22;42227;6.376;-10.782;2022-10-17T14:33:30;29.20;99.90
56322;DHT22;42227;6.376;-10.782;2022-10-17T14:36:00;30.00;99.90
56322;DHT22;42227;6.376;-10.782;2022-10-17T14:38:31;30.50;99.90
56322;DHT22;42227;6.376;-10.782;2022-10-17T14:41:12;30.50;99.90
56322;DHT22;42227;6.376;-10.782;2022-10-17T14:44:05;30.50;99.90
56322;DHT22;42227;6.376;-10.782;2022-10-17T14:46:34;30.20;99.90
56322;DHT22;42227;6.376;-10.782;2022-10-17T14:49:16;30.40;99.90
56322;DHT22;42227;6.376;-10.782;2022-10-17T14:54:47;30.20;99.90
56322;DHT22;42227;6.376;-10.782;2022-10-17T14:59:54;30.10;99.90
56322;DHT22;42227;6.376;-10.782;2022-10-17T15:02:25;30.20;99.90
56322;DHT22;42227;6.376;-10.782;2022-10-17T15:04:54;30.20;99.90
56322;DHT22;42227;6.376;-10.782;2022-10-17T15:07:22;29.60;99.90
56322;DHT22;42227;6.376;-10.782;2022-10-17T15:09:52;29.40;99.90
56322;DHT22;42227;6.376;-10.782;2022-10-17T15:12:22;29.50;99.90
56322;DHT22;42227;6.376;-10.782;2022-10-17T15:14:52;29.40;99.90
56322;DHT22;42227;6.376;-10.782;2022-10-17T15:17:27;29.60;99.90
56322;DHT22;42227;6.376;-10.782;2022-10-17T15:19:57;29.90;99.90
56322;DHT22;42227;6.376;-10.782;2022-10-17T15:22:25;29.90;99.90
56322;DHT22;42227;6.376;-10.782;2022-10-17T15:24:54;30.30;99.90
56322;DHT22;42227;6.376;-10.782;2022-10-17T15:27:23;30.30;99.90
56322;DHT22;42227;6.376;-10.782;2022-10-17T15:29:52;30.00;99.90
56322;DHT22;42227;6.376;-10.782;2022-10-17T15:32:20;30.20;99.90
56322;DHT22;42227;6.376;-10.782;2022-10-17T15:34:49;30.10;99.90
56322;DHT22;42227;6.376;-10.782;2022-10-17T15:37:22;30.10;99.90
56322;DHT22;42227;6.376;-10.782;2022-10-17T15:39:54;30.10;99.90
56322;DHT22;42227;6.376;-10.782;2022-10-17T15:42:27;30.20;99.90
56322;DHT22;42227;6.376;-10.782;2022-10-17T15:44:57;30.40;99.90
56322;DHT22;42227;6.376;-10.782;2022-10-17T15:47:28;30.40;99.90
56322;DHT22;42227;6.376;-10.782;2022-10-17T15:49:59;30.30;99.90
56322;DHT22;42227;6.376;-10.782;2022-10-17T15:52:28;29.90;99.90
56322;DHT22;42227;6.376;-10.782;2022-10-17T15:54:56;29.80;99.90
56322;DHT22;42227;6.376;-10.782;2022-10-17T15:57:34;29.80;99.90
56322;DHT22;42227;6.376;-10.782;2022-10-17T16:00:05;30.10;99.90
56322;DHT22;42227;6.376;-10.782;2022-10-17T16:02:35;30.10;99.90
56322;DHT22;42227;6.376;-10.782;2022-10-17T16:07:43;30.00;99.90
56322;DHT22;42227;6.376;-10.782;2022-10-17T16:10:15;30.20;99.90
56322;DHT22;42227;6.376;-10.782;2022-10-17T16:12:44;30.30;99.90
56322;DHT22;42227;6.376;-10.782;2022-10-17T16:17:42;29.80;99.90
56322;DHT22;42227;6.376;-10.782;2022-10-17T16:20:13;29.80;99.90
56322;DHT22;42227;6.376;-10.782;2022-10-17T16:22:44;30.10;99.90
56322;DHT22;42227;6.376;-10.782;2022-10-17T16:25:26;30.20;99.90
56322;DHT22;42227;6.376;-10.782;2022-10-17T16:27:56;30.20;99.90
56322;DHT22;42227;6.376;-10.782;2022-10-17T16:30:26;30.10;99.90
56322;DHT22;42227;6.376;-10.782;2022-10-17T16:32:55;30.20;99.90
56322;DHT22;42227;6.376;-10.782;2022-10-17T16:35:28;30.10;99.90
56322;DHT22;42227;6.376;-10.782;2022-10-17T16:38:05;29.70;99.90
56322;DHT22;42227;6.376;-10.782;2022-10-17T16:40:33;29.70;99.90
56322;DHT22;42227;6.376;-10.782;2022-10-17T16:43:02;29.80;99.90
56322;DHT22;42227;6.376;-10.782;2022-10-17T16:45:30;29.70;99.90
56322;DHT22;42227;6.376;-10.782;2022-10-17T16:47:58;29.60;99.90
56322;DHT22;42227;6.376;-10.782;2022-10-17T16:50:27;29.70;99.90
56322;DHT22;42227;6.376;-10.782;2022-10-17T16:52:55;29.70;99.90
56322;DHT22;42227;6.376;-10.782;2022-10-17T16:55:23;29.80;99.90
56322;DHT22;42227;6.376;-10.782;2022-10-17T16:57:52;30.00;99.90
56322;DHT22;42227;6.376;-10.782;2022-10-17T17:00:20;29.90;99.90
56322;DHT22;42227;6.376;-10.782;2022-10-17T17:02:48;29.90;99.90
56322;DHT22;42227;6.376;-10.782;2022-10-17T17:05:16;29.80;99.90
56322;DHT22;42227;6.376;-10.782;2022-10-17T17:07:45;29.50;99.90
56322;DHT22;42227;6.376;-10.782;2022-10-17T17:10:13;29.50;99.90
56322;DHT22;42227;6.376;-10.782;2022-10-17T17:12:41;29.30;99.90
56322;DHT22;42227;6.376;-10.782;2022-10-17T17:15:09;29.40;99.90
56322;DHT22;42227;6.376;-10.782;2022-10-17T17:17:37;29.40;99.90
56322;DHT22;42227;6.376;-10.782;2022-10-17T17:20:22;29.20;99.90
56322;DHT22;42227;6.376;-10.782;2022-10-17T17:22:51;29.20;99.90
56322;DHT22;42227;6.376;-10.782;2022-10-17T17:25:20;29.50;99.90
56322;DHT22;42227;6.376;-10.782;2022-10-17T17:27:48;29.30;99.90
56322;DHT22;42227;6.376;-10.782;2022-10-17T17:30:17;29.30;99.90
56322;DHT22;42227;6.376;-10.782;2022-10-17T17:32:45;29.20;99.90
56322;DHT22;42227;6.376;-10.782;2022-10-17T17:35:14;29.30;99.90
56322;DHT22;42227;6.376;-10.782;2022-10-17T17:37:42;29.30;99.90
56322;DHT22;42227;6.376;-10.782;2022-10-17T17:40:10;28.90;99.90
56322;DHT22;42227;6.376;-10.782;2022-10-17T17:42:39;28.90;99.90
56322;DHT22;42227;6.376;-10.782;2022-10-17T17:45:07;29.10;99.90
56322;DHT22;42227;6.376;-10.782;2022-10-17T17:47:36;29.10;99.90
56322;DHT22;42227;6.376;-10.782;2022-10-17T17:50:04;28.70;99.90
56322;DHT22;42227;6.376;-10.782;2022-10-17T17:52:32;28.90;99.90
56322;DHT22;42227;6.376;-10.782;2022-10-17T17:55:01;28.90;99.90
56322;DHT22;42227;6.376;-10.782;2022-10-17T17:57:29;28.80;99.90
56322;DHT22;42227;6.376;-10.782;2022-10-17T17:59:57;28.80;99.90
56322;DHT22;42227;6.376;-10.782;2022-10-17T18:02:25;28.80;99.90
56322;DHT22;42227;6.376;-10.782;2022-10-17T18:04:54;28.60;99.90
56322;DHT22;42227;6.376;-10.782;2022-10-17T18:07:23;28.50;99.90
56322;DHT22;42227;6.376;-10.782;2022-10-17T18:09:51;28.30;99.90
56322;DHT22;42227;6.376;-10.782;2022-10-17T18:12:19;28.20;99.90
56322;DHT22;42227;6.376;-10.782;2022-10-17T18:14:47;28.00;99.90
56322;DHT22;42227;6.376;-10.782;2022-10-17T18:17:16;28.00;99.90
56322;DHT22;42227;6.376;-10.782;2022-10-17T18:19:44;28.10;99.90
56322;DHT22;42227;6.376;-10.782;2022-10-17T18:22:12;28.20;99.90